createdAt,value
2019-01-15T00:02:01.723Z,10.99
2019-01-15T00:04:35.266Z,10.97
2019-01-15T00:07:08.604Z,11.00
2019-01-15T00:09:39.958Z,10.61
2019-01-15T00:12:12.636Z,11.00
2019-01-15T00:14:44.480Z,11.04
2019-01-15T00:17:15.540Z,10.80
2019-01-15T00:19:47.332Z,10.96
2019-01-15T00:22:21.621Z,10.84
2019-01-15T00:24:53.582Z,10.49
2019-01-15T00:27:24.608Z,10.51
2019-01-15T00:29:55.879Z,10.51
2019-01-15T00:32:26.925Z,10.88
2019-01-15T00:34:59.292Z,10.56
2019-01-15T00:37:31.164Z,10.60
2019-01-15T00:40:04.448Z,10.57
2019-01-15T00:42:37.980Z,10.64
2019-01-15T00:45:10.599Z,10.41
2019-01-15T00:47:42.768Z,10.67
2019-01-15T00:50:16.157Z,10.17
2019-01-15T00:52:48.127Z,10.61
2019-01-15T00:55:18.901Z,10.47
2019-01-15T00:57:50.982Z,10.54
2019-01-15T01:00:26.935Z,10.61
2019-01-15T01:02:59.436Z,10.60
2019-01-15T01:05:35.342Z,10.16
2019-01-15T01:08:09.269Z,10.27
2019-01-15T01:10:45.746Z,10.27
2019-01-15T01:13:17.596Z,10.52
2019-01-15T01:15:49.418Z,10.07
2019-01-15T01:18:27.601Z,9.78
2019-01-15T01:20:59.882Z,9.75
2019-01-15T01:23:31.805Z,9.58
2019-01-15T01:26:04.503Z,9.92
2019-01-15T01:28:36.202Z,10.13
2019-01-15T01:31:07.406Z,10.29
2019-01-15T01:33:40.894Z,9.78
2019-01-15T01:36:14.122Z,10.16
2019-01-15T01:38:45.025Z,9.73
2019-01-15T01:41:17.238Z,9.91
2019-01-15T01:43:48.648Z,9.72
2019-01-15T01:46:21.541Z,10.22
2019-01-15T01:48:53.073Z,9.39
2019-01-15T01:51:28.801Z,9.41
2019-01-15T01:54:03.655Z,9.13
2019-01-15T01:56:36.950Z,9.26
2019-01-15T01:59:09.077Z,9.41
2019-01-15T02:01:40.824Z,9.69
2019-01-15T02:04:12.553Z,9.88
2019-01-15T02:06:45.951Z,9.80
2019-01-15T02:09:17.570Z,10.18
2019-01-15T02:11:49.392Z,10.17
2019-01-15T02:14:21.005Z,9.97
2019-01-15T02:16:51.825Z,9.97
2019-01-15T02:19:24.969Z,10.07
2019-01-15T02:21:58.660Z,10.20
2019-01-15T02:24:33.903Z,10.20
2019-01-15T02:27:07.579Z,10.08
2019-01-15T02:29:38.794Z,10.43
2019-01-15T02:32:10.920Z,10.47
2019-01-15T02:34:42.099Z,10.49
2019-01-15T02:37:15.319Z,10.62
2019-01-15T02:39:46.713Z,9.84
2019-01-15T02:42:17.791Z,10.26
2019-01-15T02:44:48.863Z,10.35
2019-01-15T02:47:20.046Z,10.15
2019-01-15T02:49:50.662Z,9.96
2019-01-15T02:52:22.149Z,10.61
2019-01-15T02:54:55.946Z,9.86
2019-01-15T02:57:27.082Z,9.90
2019-01-15T02:59:58.568Z,10.34
2019-01-15T03:02:30.108Z,10.66
2019-01-15T03:05:02.834Z,10.72
2019-01-15T03:07:37.694Z,10.39
2019-01-15T03:10:11.124Z,10.74
2019-01-15T03:12:44.922Z,11.03
2019-01-15T03:15:17.154Z,10.94
2019-01-15T03:17:48.881Z,11.19
2019-01-15T03:20:22.353Z,10.90
2019-01-15T03:22:56.557Z,10.03
2019-01-15T03:25:28.385Z,10.26
2019-01-15T03:27:59.159Z,9.94
2019-01-15T03:30:31.263Z,9.92
2019-01-15T03:33:03.273Z,10.32
2019-01-15T03:35:49.655Z,10.18
2019-01-15T03:38:23.848Z,9.91
2019-01-15T03:40:54.971Z,9.34
2019-01-15T03:43:26.512Z,9.82
2019-01-15T03:46:04.214Z,9.39
2019-01-15T03:48:32.584Z,9.61
2019-01-15T03:51:05.639Z,9.58
2019-01-15T03:53:37.554Z,10.15
2019-01-15T03:56:10.118Z,10.20
2019-01-15T03:58:41.471Z,10.21
2019-01-15T04:01:13.900Z,9.93
2019-01-15T04:03:45.568Z,9.84
2019-01-15T04:06:16.548Z,9.99
2019-01-15T04:08:49.324Z,9.61
2019-01-15T04:11:20.916Z,10.08
2019-01-15T04:13:52.061Z,9.21
2019-01-15T04:16:22.722Z,9.57
2019-01-15T04:18:54.538Z,9.44
2019-01-15T04:21:26.277Z,9.83
2019-01-15T04:24:00.185Z,9.58
2019-01-15T04:26:31.861Z,10.08
2019-01-15T04:29:03.215Z,10.44
2019-01-15T04:31:34.856Z,10.13
2019-01-15T04:34:06.342Z,9.99
2019-01-15T04:36:37.255Z,10.02
2019-01-15T04:39:10.096Z,9.01
2019-01-15T04:41:42.677Z,9.26
2019-01-15T04:44:14.310Z,9.44
2019-01-15T04:46:46.297Z,10.12
2019-01-15T04:49:17.394Z,9.77
2019-01-15T04:51:50.024Z,9.35
2019-01-15T04:54:21.714Z,10.34
2019-01-15T04:56:55.424Z,9.88
2019-01-15T04:59:27.572Z,9.19
2019-01-15T05:01:59.550Z,9.76
2019-01-15T05:04:31.011Z,9.88
2019-01-15T05:07:02.187Z,10.15
2019-01-15T05:09:34.889Z,9.15
2019-01-15T05:12:05.566Z,9.63
2019-01-15T05:14:37.423Z,9.47
2019-01-15T05:17:08.882Z,9.78
2019-01-15T05:19:46.794Z,9.72
2019-01-15T05:22:18.222Z,10.21
2019-01-15T05:24:51.615Z,9.88
2019-01-15T05:27:23.701Z,9.92
2019-01-15T05:29:55.368Z,9.89
2019-01-15T05:32:29.069Z,10.13
2019-01-15T05:35:03.343Z,10.19
2019-01-15T05:37:34.996Z,9.66
2019-01-15T05:40:16.376Z,9.59
2019-01-15T05:42:49.170Z,9.40
2019-01-15T05:45:26.195Z,9.71
2019-01-15T05:48:00.306Z,10.28
2019-01-15T05:50:42.922Z,9.33
2019-01-15T05:53:13.639Z,9.82
2019-01-15T05:55:48.862Z,9.49
2019-01-15T05:58:20.779Z,9.48
2019-01-15T06:00:53.652Z,9.77
2019-01-15T06:03:24.668Z,9.30
2019-01-15T06:05:57.002Z,9.79
2019-01-15T06:08:30.253Z,10.39
2019-01-15T06:11:02.326Z,10.44
2019-01-15T06:13:42.474Z,10.12
2019-01-15T06:16:08.403Z,10.35
2019-01-15T06:18:40.166Z,10.23
2019-01-15T06:21:13.540Z,10.12
2019-01-15T06:23:44.764Z,10.76
2019-01-15T06:26:16.877Z,10.27
2019-01-15T06:28:52.385Z,10.54
2019-01-15T06:31:25.437Z,10.69
2019-01-15T06:33:59.289Z,10.43
2019-01-15T06:36:31.692Z,10.25
2019-01-15T06:39:08.197Z,10.54
2019-01-15T06:41:41.568Z,11.15
2019-01-15T06:44:16.459Z,11.02
2019-01-15T06:46:50.615Z,10.41
2019-01-15T06:49:23.193Z,10.68
2019-01-15T06:51:54.337Z,11.20
2019-01-15T06:54:25.994Z,10.58
2019-01-15T06:56:59.299Z,11.17
2019-01-15T06:59:32.490Z,10.20
2019-01-15T07:02:04.203Z,10.03
2019-01-15T07:04:35.920Z,10.24
2019-01-15T07:07:07.920Z,10.00
2019-01-15T07:09:39.251Z,9.64
2019-01-15T07:12:14.456Z,10.31
2019-01-15T07:14:46.233Z,10.28
2019-01-15T07:17:25.576Z,10.11
2019-01-15T07:19:58.639Z,10.18
2019-01-15T07:22:31.525Z,10.18
2019-01-15T07:25:03.916Z,9.54
2019-01-15T07:27:37.471Z,9.76
2019-01-15T07:30:13.564Z,10.09
2019-01-15T07:32:45.604Z,10.02
2019-01-15T07:35:18.119Z,10.01
2019-01-15T07:37:49.281Z,9.73
2019-01-15T07:40:20.021Z,9.66
2019-01-15T07:42:52.785Z,9.69
2019-01-15T07:45:23.499Z,10.76
2019-01-15T07:47:56.905Z,11.02
2019-01-15T07:50:31.437Z,11.20
2019-01-15T07:53:03.219Z,10.99
2019-01-15T07:55:33.484Z,11.40
2019-01-15T07:58:06.493Z,11.47
2019-01-15T08:00:40.739Z,11.02
2019-01-15T08:03:13.444Z,11.58
2019-01-15T08:05:43.974Z,11.63
2019-01-15T08:08:15.077Z,11.09
2019-01-15T08:10:46.280Z,11.12
2019-01-15T08:13:17.800Z,11.39
2019-01-15T08:15:51.995Z,11.50
2019-01-15T08:18:23.649Z,10.69
2019-01-15T08:20:56.815Z,10.55
2019-01-15T08:23:28.210Z,10.88
2019-01-15T08:26:00.535Z,10.43
2019-01-15T08:28:32.842Z,11.23
2019-01-15T08:31:04.495Z,10.93
2019-01-15T08:33:37.797Z,11.14
2019-01-15T08:36:09.204Z,11.06
2019-01-15T08:38:44.840Z,11.70
2019-01-15T08:41:16.938Z,10.75
2019-01-15T08:43:50.218Z,11.28
2019-01-15T08:46:23.045Z,11.16
2019-01-15T08:48:54.437Z,11.38
2019-01-15T08:51:26.118Z,11.36
2019-01-15T08:53:58.917Z,11.72
2019-01-15T08:56:30.387Z,10.74
2019-01-15T08:59:05.176Z,10.74
2019-01-15T09:01:42.949Z,11.06
2019-01-15T09:04:16.945Z,11.18
2019-01-15T09:06:51.355Z,11.39
2019-01-15T09:09:25.876Z,11.84
2019-01-15T09:11:59.786Z,11.98
2019-01-15T09:14:32.917Z,11.78
2019-01-15T09:17:12.316Z,12.00
2019-01-15T09:19:44.060Z,12.02
2019-01-15T09:22:16.523Z,12.65
2019-01-15T09:24:47.634Z,12.64
2019-01-15T09:27:19.117Z,12.90
2019-01-15T09:29:53.548Z,12.15
2019-01-15T09:32:24.502Z,12.70
2019-01-15T09:34:56.232Z,12.69
2019-01-15T09:37:29.200Z,12.47
2019-01-15T09:40:00.363Z,11.96
2019-01-15T09:42:30.992Z,12.14
2019-01-15T09:45:04.522Z,11.80
2019-01-15T09:47:42.162Z,12.11
2019-01-15T09:50:15.434Z,12.24
2019-01-15T09:52:47.398Z,11.26
2019-01-15T09:55:19.178Z,12.28
2019-01-15T09:57:53.890Z,12.57
2019-01-15T10:00:27.152Z,12.45
2019-01-15T10:02:59.996Z,11.69
2019-01-15T10:05:34.202Z,11.81
2019-01-15T10:08:05.856Z,12.06
2019-01-15T10:10:38.215Z,12.17
2019-01-15T10:13:09.500Z,12.18
2019-01-15T10:15:43.784Z,12.03
2019-01-15T10:18:23.287Z,12.76
2019-01-15T10:20:57.671Z,12.45
2019-01-15T10:23:28.747Z,12.38
2019-01-15T10:26:00.326Z,12.57
2019-01-15T10:28:34.561Z,13.17
2019-01-15T10:31:44.044Z,12.66
2019-01-15T10:34:20.966Z,12.43
2019-01-15T10:36:49.838Z,12.23
2019-01-15T10:39:25.200Z,12.25
2019-01-15T10:41:56.858Z,12.19
2019-01-15T10:44:29.281Z,12.88
2019-01-15T10:47:04.592Z,11.59
2019-01-15T10:49:40.723Z,12.54
2019-01-15T10:52:19.806Z,11.82
2019-01-15T10:54:50.772Z,11.74
2019-01-15T10:57:21.576Z,12.04
2019-01-15T10:59:53.129Z,12.51
2019-01-15T11:02:25.354Z,12.36
2019-01-15T11:04:57.457Z,12.40
2019-01-15T11:07:29.460Z,12.68
2019-01-15T11:10:00.757Z,13.04
2019-01-15T11:12:36.480Z,12.88
2019-01-15T11:15:09.727Z,12.07
2019-01-15T11:17:58.546Z,12.19
2019-01-15T11:20:32.758Z,12.36
2019-01-15T11:23:04.575Z,12.82
2019-01-15T11:25:42.559Z,13.00
2019-01-15T11:28:13.776Z,12.93
2019-01-15T11:30:47.754Z,12.94
2019-01-15T11:33:26.529Z,13.56
2019-01-15T11:35:57.690Z,13.88
2019-01-15T11:38:29.651Z,12.73
2019-01-15T11:41:01.357Z,12.69
2019-01-15T11:43:32.766Z,13.03
2019-01-15T11:46:04.287Z,12.55
2019-01-15T11:48:39.292Z,12.52
2019-01-15T11:51:12.030Z,13.11
2019-01-15T11:53:44.802Z,12.96
2019-01-15T11:56:18.693Z,13.27
2019-01-15T11:58:53.403Z,13.98
2019-01-15T12:01:41.624Z,13.74
2019-01-15T12:04:31.895Z,13.66
2019-01-15T12:07:32.555Z,13.81
2019-01-15T12:10:20.495Z,13.82
2019-01-15T12:13:10.378Z,14.00
2019-01-15T12:16:08.518Z,14.07
2019-01-15T12:18:58.766Z,14.20
2019-01-15T12:21:48.923Z,14.06
2019-01-15T12:24:32.166Z,13.31
2019-01-15T12:27:27.144Z,13.35
2019-01-15T12:30:25.313Z,13.81
2019-01-15T12:33:24.438Z,13.51
2019-01-15T12:36:18.087Z,13.86
2019-01-15T12:39:26.734Z,14.28
2019-01-15T12:42:23.071Z,14.06
2019-01-15T12:45:18.590Z,12.96
2019-01-15T12:48:10.664Z,12.82
2019-01-15T12:51:02.267Z,12.64
2019-01-15T12:54:14.069Z,12.54
2019-01-15T12:57:18.848Z,11.90
2019-01-15T13:00:15.817Z,11.76
2019-01-15T13:03:06.841Z,12.46
2019-01-15T13:05:57.178Z,12.93
2019-01-15T13:08:55.527Z,13.67
2019-01-15T13:11:36.408Z,13.50
2019-01-15T13:14:29.211Z,12.55
2019-01-15T13:17:35.500Z,13.40
2019-01-15T13:20:17.414Z,12.76
2019-01-15T13:23:03.711Z,11.80
2019-01-15T13:26:07.425Z,12.67
2019-01-15T13:28:56.736Z,12.25
2019-01-15T13:31:45.450Z,12.04
2019-01-15T13:34:38.714Z,12.55
2019-01-15T13:37:28.464Z,11.53
2019-01-15T13:40:31.418Z,12.04
2019-01-15T13:43:33.183Z,12.53
2019-01-15T13:46:20.473Z,12.75
2019-01-15T13:49:20.806Z,13.11
2019-01-15T13:52:14.297Z,12.54
2019-01-15T13:55:13.114Z,12.04
2019-01-15T13:58:04.724Z,12.88
2019-01-15T14:00:49.181Z,13.00
2019-01-15T14:03:37.993Z,12.73
2019-01-15T14:06:29.697Z,12.30
2019-01-15T14:09:22.268Z,12.68
2019-01-15T14:12:21.127Z,13.02
2019-01-15T14:15:22.913Z,13.36
2019-01-15T14:18:13.081Z,12.44
2019-01-15T14:21:03.711Z,12.40
2019-01-15T14:23:46.287Z,12.64
2019-01-15T14:26:34.621Z,11.58
2019-01-15T14:29:30.180Z,12.16
2019-01-15T14:32:23.445Z,12.23
2019-01-15T14:35:31.371Z,12.83
2019-01-15T14:38:32.436Z,12.51
2019-01-15T14:41:36.932Z,12.88
2019-01-15T14:44:29.703Z,12.82
2019-01-15T14:47:24.009Z,12.35
2019-01-15T14:50:13.235Z,11.80
2019-01-15T14:53:03.473Z,12.69
2019-01-15T14:55:54.586Z,12.98
2019-01-15T14:58:45.797Z,12.65
2019-01-15T15:01:47.148Z,12.69
2019-01-15T15:04:46.623Z,12.32
2019-01-15T15:07:37.653Z,12.53
2019-01-15T15:10:42.412Z,12.13
2019-01-15T15:13:35.487Z,11.54
2019-01-15T15:16:44.665Z,12.18
2019-01-15T15:19:37.229Z,12.58
2019-01-15T15:22:37.927Z,12.14
2019-01-15T15:25:41.897Z,12.24
2019-01-15T15:28:32.196Z,11.81
2019-01-15T15:31:31.166Z,11.76
2019-01-15T15:34:27.954Z,12.72
2019-01-15T15:37:24.567Z,12.59
2019-01-15T15:40:06.753Z,13.04
2019-01-15T15:43:07.703Z,13.05
2019-01-15T15:46:11.202Z,13.22
2019-01-15T15:48:56.400Z,12.97
2019-01-15T15:51:39.236Z,12.52
2019-01-15T15:54:48.874Z,12.87
2019-01-15T15:57:59.150Z,12.93
2019-01-15T16:00:55.565Z,12.64
2019-01-15T16:03:37.894Z,12.62
2019-01-15T16:06:32.749Z,12.05
2019-01-15T16:09:28.204Z,12.16
2019-01-15T16:12:29.932Z,12.52
2019-01-15T16:15:33.783Z,12.35
2019-01-15T16:18:28.163Z,12.47
2019-01-15T16:21:32.079Z,12.51
2019-01-15T16:24:22.398Z,12.85
2019-01-15T16:27:15.427Z,12.82
2019-01-15T16:30:15.847Z,12.58
2019-01-15T16:32:57.972Z,12.10
2019-01-15T16:35:48.373Z,12.24
2019-01-15T16:38:39.897Z,11.78
2019-01-15T16:41:29.791Z,11.89
2019-01-15T16:44:18.308Z,11.46
2019-01-15T16:47:19.568Z,12.41
2019-01-15T16:50:11.313Z,12.74
2019-01-15T16:52:57.524Z,12.22
2019-01-15T16:55:58.143Z,11.65
2019-01-15T16:58:45.041Z,12.01
2019-01-15T17:01:34.740Z,11.92
2019-01-15T17:04:13.561Z,12.19
2019-01-15T17:07:04.366Z,12.41
2019-01-15T17:10:00.253Z,11.61
2019-01-15T17:13:07.406Z,11.28
2019-01-15T17:15:56.678Z,11.76
2019-01-15T17:18:39.712Z,12.08
2019-01-15T17:21:34.444Z,12.26
2019-01-15T17:24:44.343Z,12.68
2019-01-15T17:27:30.745Z,12.90
2019-01-15T17:30:25.643Z,12.98
2019-01-15T17:33:10.093Z,12.33
2019-01-15T17:36:03.660Z,12.35
2019-01-15T17:39:04.416Z,12.83
2019-01-15T17:42:01.350Z,12.55
2019-01-15T17:45:09.857Z,12.54
2019-01-15T17:48:07.444Z,13.17
2019-01-15T17:51:06.642Z,12.04
2019-01-15T17:54:05.235Z,12.03
2019-01-15T17:56:55.836Z,12.27
2019-01-15T17:59:54.198Z,11.84
2019-01-15T18:02:50.934Z,12.16
2019-01-15T18:05:50.680Z,12.86
2019-01-15T18:08:47.228Z,12.10
2019-01-15T18:12:04.572Z,12.32
2019-01-15T18:14:59.348Z,12.23
2019-01-15T18:17:58.109Z,11.61
2019-01-15T18:20:55.234Z,11.00
2019-01-15T18:23:49.907Z,10.73
2019-01-15T18:26:39.809Z,10.96
2019-01-15T18:29:34.473Z,10.94
2019-01-15T18:32:31.256Z,11.31
2019-01-15T18:35:20.492Z,10.49
2019-01-15T18:38:14.338Z,11.04
2019-01-15T18:41:09.582Z,10.34
2019-01-15T18:44:02.751Z,10.38
2019-01-15T18:46:55.965Z,10.71
2019-01-15T18:50:02.727Z,10.79
2019-01-15T18:53:02.723Z,11.17
2019-01-15T18:56:07.957Z,11.04
2019-01-15T18:59:05.788Z,11.15
2019-01-15T19:02:06.212Z,11.10
2019-01-15T19:04:58.385Z,11.64
2019-01-15T19:07:46.945Z,11.76
2019-01-15T19:10:51.452Z,11.77
2019-01-15T19:13:41.582Z,11.88
2019-01-15T19:16:40.282Z,11.65
2019-01-15T19:19:29.978Z,11.14
2019-01-15T19:22:23.001Z,10.90
2019-01-15T19:25:31.189Z,11.45
2019-01-15T19:28:14.932Z,11.28
2019-01-15T19:31:04.806Z,11.57
2019-01-15T19:33:55.753Z,11.40
2019-01-15T19:36:46.772Z,11.55
2019-01-15T19:39:25.805Z,11.94
2019-01-15T19:42:21.667Z,11.96
2019-01-15T19:45:12.217Z,11.45
2019-01-15T19:48:03.681Z,11.88
2019-01-15T19:50:49.870Z,11.59
2019-01-15T19:53:39.941Z,11.09
2019-01-15T19:56:33.228Z,10.70
2019-01-15T19:59:22.764Z,10.72
2019-01-15T20:02:19.095Z,11.42
2019-01-15T20:05:22.943Z,10.69
2019-01-15T20:08:22.478Z,11.20
2019-01-15T20:11:27.777Z,11.22
2019-01-15T20:14:38.854Z,11.41
2019-01-15T20:17:28.217Z,11.89
2019-01-15T20:20:24.579Z,11.54
2019-01-15T20:23:17.642Z,11.47
2019-01-15T20:26:25.528Z,11.90
2019-01-15T20:29:25.215Z,12.31
2019-01-15T20:32:20.043Z,11.86
2019-01-15T20:35:23.774Z,12.36
2019-01-15T20:38:30.382Z,11.89
2019-01-15T20:41:23.901Z,12.44
2019-01-15T20:44:14.971Z,11.85
2019-01-15T20:47:05.940Z,12.49
2019-01-15T20:49:55.576Z,11.81
2019-01-15T20:52:49.575Z,12.29
2019-01-15T20:55:42.924Z,11.78
2019-01-15T20:58:35.306Z,12.00
2019-01-15T21:01:32.848Z,11.83
2019-01-15T21:04:34.919Z,11.17
2019-01-15T21:07:25.415Z,12.06
2019-01-15T21:10:21.537Z,12.21
2019-01-15T21:13:23.483Z,12.26
2019-01-15T21:16:29.156Z,12.01
2019-01-15T21:19:23.799Z,12.45
2019-01-15T21:22:07.006Z,12.07
2019-01-15T21:25:01.936Z,11.98
2019-01-15T21:27:59.912Z,12.37
2019-01-15T21:30:54.587Z,11.73
2019-01-15T21:33:57.908Z,11.55
2019-01-15T21:37:04.243Z,11.20
2019-01-15T21:39:51.865Z,11.95
2019-01-15T21:42:44.686Z,11.23
2019-01-15T21:45:40.550Z,12.32
2019-01-15T21:48:31.045Z,12.11
2019-01-15T21:51:24.728Z,12.64
2019-01-15T21:54:14.004Z,13.03
2019-01-15T21:57:23.930Z,12.51
2019-01-15T22:00:17.502Z,12.85
2019-01-15T22:03:08.495Z,13.15
2019-01-15T22:05:58.011Z,12.85
2019-01-15T22:09:06.036Z,12.80
2019-01-15T22:11:57.439Z,12.87
2019-01-15T22:14:47.119Z,12.66
2019-01-15T22:17:27.169Z,12.49
2019-01-15T22:20:17.886Z,11.81
2019-01-15T22:23:11.577Z,12.85
2019-01-15T22:26:00.803Z,12.98
2019-01-15T22:28:45.690Z,12.99
2019-01-15T22:31:46.510Z,13.07
2019-01-15T22:34:46.033Z,12.63
2019-01-15T22:37:34.164Z,12.25
2019-01-15T22:40:46.492Z,13.02
2019-01-15T22:43:32.085Z,13.10
2019-01-15T22:46:26.356Z,13.19
2019-01-15T22:49:16.131Z,12.65
2019-01-15T22:52:22.004Z,13.21
2019-01-15T22:55:11.093Z,13.45
2019-01-15T22:58:06.817Z,12.81
2019-01-15T23:01:08.662Z,12.83
2019-01-15T23:03:59.141Z,12.46
2019-01-15T23:06:48.593Z,12.27
2019-01-15T23:09:39.332Z,12.28
2019-01-15T23:12:26.783Z,12.58
2019-01-15T23:15:28.428Z,12.49
2019-01-15T23:18:31.008Z,12.43
2019-01-15T23:21:23.144Z,11.45
2019-01-15T23:24:12.542Z,11.51
2019-01-15T23:26:52.451Z,11.48
2019-01-15T23:29:41.780Z,12.31
2019-01-15T23:32:31.840Z,12.18
2019-01-15T23:35:19.520Z,11.59
2019-01-15T23:38:12.009Z,11.85
2019-01-15T23:40:52.881Z,11.84
2019-01-15T23:43:41.214Z,11.53
2019-01-15T23:46:31.218Z,11.98
2019-01-15T23:49:20.108Z,11.57
2019-01-15T23:52:11.335Z,11.82
2019-01-15T23:55:10.667Z,12.37
2019-01-15T23:58:03.745Z,12.09
